Packwood, Washington
Current Conditions -  °F | °C
As of 4:58 AM on Thursday 23 Oct 2014 (Local Time) from KTCM Reporting Station
Light Rain Light Rain  
Wind Chill: 51°   Ceiling: 6000
Heat Index: 51°   Visibility: 10mi
Dew Point: 51°   Wind: 7mph
Humidity: 99%   Direction: 170°S
Pressure: 29.72"   Gusts: NA
Location:  46.61°N, 121.67°W
Report Text: KTCM 231158Z AUTO 17006KT 10SM -RA FEW039 SCT049 OVC060 11/11 A2972 RMK AO2 RAB1105 SLP068 P0003 60003 70105 T01060105 10130 20104 56007 $
Loading
Personal Weather Stations






























Interactive Weather Map New forecast layout! Learn more

10-Day Weather Forecast

Advertisements
Track Severe Weather on mobile